sensor_id;sensor_type;location;lat;lon;timestamp;P1;durP1;ratioP1;P2;durP2;ratioP2
68224;SDS011;57497;43.322;21.932;2023-02-26T00:00:34;53.7;;;10.5;;
68224;SDS011;57497;43.322;21.932;2023-02-26T00:05:34;36;;;9.8;;
68224;SDS011;57497;43.322;21.932;2023-02-26T00:10:33;18;;;8.1;;
68224;SDS011;57497;43.322;21.932;2023-02-26T00:15:33;43.6;;;8.4;;
68224;SDS011;57497;43.322;21.932;2023-02-26T00:20:33;20;;;6.6;;
68224;SDS011;57497;43.322;21.932;2023-02-26T00:25:33;13.7;;;4.5;;
68224;SDS011;57497;43.322;21.932;2023-02-26T00:30:33;8.1;;;3.7;;
68224;SDS011;57497;43.322;21.932;2023-02-26T00:35:33;12.9;;;6.4;;
68224;SDS011;57497;43.322;21.932;2023-02-26T00:40:34;10.5;;;4.4;;
68224;SDS011;57497;43.322;21.932;2023-02-26T00:45:33;29.4;;;7;;
68224;SDS011;57497;43.322;21.932;2023-02-26T00:50:33;6.7;;;4.2;;
68224;SDS011;57497;43.322;21.932;2023-02-26T00:55:33;11.4;;;4.8;;
68224;SDS011;57497;43.322;21.932;2023-02-26T01:00:34;11.8;;;6.1;;
68224;SDS011;57497;43.322;21.932;2023-02-26T01:05:32;19.5;;;5.3;;
68224;SDS011;57497;43.322;21.932;2023-02-26T01:10:33;22.6;;;4.7;;
68224;SDS011;57497;43.322;21.932;2023-02-26T01:15:33;20.9;;;6.2;;
68224;SDS011;57497;43.322;21.932;2023-02-26T01:20:34;16.4;;;5.9;;
68224;SDS011;57497;43.322;21.932;2023-02-26T01:25:34;15.7;;;4.8;;
68224;SDS011;57497;43.322;21.932;2023-02-26T01:30:33;21.1;;;4.8;;
68224;SDS011;57497;43.322;21.932;2023-02-26T01:35:38;8.4;;;4.3;;
68224;SDS011;57497;43.322;21.932;2023-02-26T01:40:37;15.2;;;5.4;;
68224;SDS011;57497;43.322;21.932;2023-02-26T01:45:33;12.9;;;7.1;;
68224;SDS011;57497;43.322;21.932;2023-02-26T01:50:33;12.5;;;4.8;;
68224;SDS011;57497;43.322;21.932;2023-02-26T01:55:32;12.5;;;3.4;;
68224;SDS011;57497;43.322;21.932;2023-02-26T02:00:33;9.3;;;4.8;;
68224;SDS011;57497;43.322;21.932;2023-02-26T02:05:35;8.1;;;3.6;;
68224;SDS011;57497;43.322;21.932;2023-02-26T02:10:33;13.1;;;5.3;;
68224;SDS011;57497;43.322;21.932;2023-02-26T02:15:35;8.7;;;4.8;;
68224;SDS011;57497;43.322;21.932;2023-02-26T02:20:51;13.2;;;5;;
68224;SDS011;57497;43.322;21.932;2023-02-26T02:25:38;7.1;;;3.8;;
68224;SDS011;57497;43.322;21.932;2023-02-26T02:30:34;12.4;;;6.1;;
68224;SDS011;57497;43.322;21.932;2023-02-26T02:35:35;14.8;;;3.8;;
68224;SDS011;57497;43.322;21.932;2023-02-26T02:40:33;16.4;;;4.4;;
68224;SDS011;57497;43.322;21.932;2023-02-26T02:45:36;9.3;;;4.6;;
68224;SDS011;57497;43.322;21.932;2023-02-26T02:50:34;7;;;3.2;;
68224;SDS011;57497;43.322;21.932;2023-02-26T02:55:34;13;;;4.1;;
68224;SDS011;57497;43.322;21.932;2023-02-26T03:00:35;6.1;;;3.6;;
68224;SDS011;57497;43.322;21.932;2023-02-26T03:05:32;13.4;;;4.1;;
68224;SDS011;57497;43.322;21.932;2023-02-26T03:10:33;10.5;;;3.9;;
68224;SDS011;57497;43.322;21.932;2023-02-26T03:15:35;11.7;;;6.2;;
68224;SDS011;57497;43.322;21.932;2023-02-26T03:20:34;16.2;;;4.1;;
68224;SDS011;57497;43.322;21.932;2023-02-26T03:25:35;15.1;;;4.4;;
68224;SDS011;57497;43.322;21.932;2023-02-26T03:30:34;14.9;;;3.8;;
68224;SDS011;57497;43.322;21.932;2023-02-26T03:35:34;12;;;3.7;;
68224;SDS011;57497;43.322;21.932;2023-02-26T03:40:35;4.3;;;2.2;;
68224;SDS011;57497;43.322;21.932;2023-02-26T03:45:34;20.6;;;4.5;;
68224;SDS011;57497;43.322;21.932;2023-02-26T03:50:34;8.3;;;3.3;;
68224;SDS011;57497;43.322;21.932;2023-02-26T03:55:35;9.2;;;3.7;;
68224;SDS011;57497;43.322;21.932;2023-02-26T04:00:34;23.3;;;4.1;;
68224;SDS011;57497;43.322;21.932;2023-02-26T04:05:33;14.1;;;3.8;;
68224;SDS011;57497;43.322;21.932;2023-02-26T04:10:35;12.5;;;3.4;;
68224;SDS011;57497;43.322;21.932;2023-02-26T04:15:33;10;;;3.6;;
68224;SDS011;57497;43.322;21.932;2023-02-26T04:20:33;7.2;;;3.3;;
68224;SDS011;57497;43.322;21.932;2023-02-26T04:25:32;6.5;;;2.8;;
68224;SDS011;57497;43.322;21.932;2023-02-26T04:30:33;8.2;;;3.3;;
68224;SDS011;57497;43.322;21.932;2023-02-26T04:35:33;13;;;4;;
68224;SDS011;57497;43.322;21.932;2023-02-26T04:40:33;11.1;;;3.2;;
68224;SDS011;57497;43.322;21.932;2023-02-26T04:45:33;6.3;;;3.6;;
68224;SDS011;57497;43.322;21.932;2023-02-26T04:50:33;15.5;;;3.2;;
68224;SDS011;57497;43.322;21.932;2023-02-26T04:55:33;8.1;;;3.1;;
68224;SDS011;57497;43.322;21.932;2023-02-26T05:00:34;9.9;;;3;;
68224;SDS011;57497;43.322;21.932;2023-02-26T05:05:33;13.3;;;3.3;;
68224;SDS011;57497;43.322;21.932;2023-02-26T05:10:32;16.3;;;3.4;;
68224;SDS011;57497;43.322;21.932;2023-02-26T05:15:33;13.8;;;4;;
68224;SDS011;57497;43.322;21.932;2023-02-26T05:20:33;7.6;;;2.5;;
68224;SDS011;57497;43.322;21.932;2023-02-26T05:25:32;7.8;;;3.1;;
68224;SDS011;57497;43.322;21.932;2023-02-26T05:30:33;36.5;;;5.9;;
68224;SDS011;57497;43.322;21.932;2023-02-26T05:35:33;11.7;;;4.1;;
68224;SDS011;57497;43.322;21.932;2023-02-26T05:40:33;8.6;;;5.6;;
68224;SDS011;57497;43.322;21.932;2023-02-26T05:45:33;6.9;;;3.6;;
68224;SDS011;57497;43.322;21.932;2023-02-26T05:50:33;11.7;;;4.3;;
68224;SDS011;57497;43.322;21.932;2023-02-26T05:55:33;8.7;;;3.9;;
68224;SDS011;57497;43.322;21.932;2023-02-26T06:00:34;7.3;;;3.4;;
68224;SDS011;57497;43.322;21.932;2023-02-26T06:05:33;14.6;;;4.6;;
68224;SDS011;57497;43.322;21.932;2023-02-26T06:10:33;25.9;;;6.2;;
68224;SDS011;57497;43.322;21.932;2023-02-26T06:15:33;21.9;;;10.8;;
68224;SDS011;57497;43.322;21.932;2023-02-26T06:20:32;42;;;11.8;;
68224;SDS011;57497;43.322;21.932;2023-02-26T06:25:33;19.2;;;9.6;;
68224;SDS011;57497;43.322;21.932;2023-02-26T06:30:33;35.4;;;15.9;;
68224;SDS011;57497;43.322;21.932;2023-02-26T06:35:32;36.6;;;18.3;;
68224;SDS011;57497;43.322;21.932;2023-02-26T06:40:33;37.6;;;16.5;;
68224;SDS011;57497;43.322;21.932;2023-02-26T06:45:33;27.3;;;11;;
68224;SDS011;57497;43.322;21.932;2023-02-26T06:50:32;26.1;;;9.7;;
68224;SDS011;57497;43.322;21.932;2023-02-26T06:55:33;22.9;;;7.4;;
68224;SDS011;57497;43.322;21.932;2023-02-26T07:00:34;29.1;;;6.3;;
68224;SDS011;57497;43.322;21.932;2023-02-26T07:05:33;20.8;;;5.2;;
68224;SDS011;57497;43.322;21.932;2023-02-26T07:10:33;33.8;;;7.2;;
68224;SDS011;57497;43.322;21.932;2023-02-26T07:15:33;9;;;5.1;;
68224;SDS011;57497;43.322;21.932;2023-02-26T07:20:33;20.9;;;9.9;;
68224;SDS011;57497;43.322;21.932;2023-02-26T07:25:32;13.4;;;8.5;;
68224;SDS011;57497;43.322;21.932;2023-02-26T07:30:33;22.7;;;5.9;;
68224;SDS011;57497;43.322;21.932;2023-02-26T07:35:33;21.1;;;7.2;;
68224;SDS011;57497;43.322;21.932;2023-02-26T07:40:33;31.5;;;9;;
68224;SDS011;57497;43.322;21.932;2023-02-26T07:45:33;19.8;;;7.6;;
68224;SDS011;57497;43.322;21.932;2023-02-26T07:50:33;24.4;;;6.1;;
68224;SDS011;57497;43.322;21.932;2023-02-26T07:55:32;18;;;8.1;;
68224;SDS011;57497;43.322;21.932;2023-02-26T08:00:34;16.9;;;7.8;;
68224;SDS011;57497;43.322;21.932;2023-02-26T08:05:33;24.2;;;6.7;;
68224;SDS011;57497;43.322;21.932;2023-02-26T08:10:33;16.1;;;9;;
68224;SDS011;57497;43.322;21.932;2023-02-26T08:15:33;26.8;;;8.8;;
68224;SDS011;57497;43.322;21.932;2023-02-26T08:20:33;14.3;;;7.4;;
68224;SDS011;57497;43.322;21.932;2023-02-26T08:25:32;13.1;;;4.9;;
68224;SDS011;57497;43.322;21.932;2023-02-26T08:30:33;28.2;;;10.6;;
68224;SDS011;57497;43.322;21.932;2023-02-26T08:35:33;27;;;13.3;;
68224;SDS011;57497;43.322;21.932;2023-02-26T08:40:33;21.1;;;13.7;;
68224;SDS011;57497;43.322;21.932;2023-02-26T08:45:33;45.6;;;18.2;;
68224;SDS011;57497;43.322;21.932;2023-02-26T08:50:33;45.6;;;18.8;;
68224;SDS011;57497;43.322;21.932;2023-02-26T08:55:32;48.5;;;20.4;;
68224;SDS011;57497;43.322;21.932;2023-02-26T09:00:34;25.6;;;15.6;;
68224;SDS011;57497;43.322;21.932;2023-02-26T09:05:33;25.9;;;15.5;;
68224;SDS011;57497;43.322;21.932;2023-02-26T09:10:33;28.2;;;14.2;;
68224;SDS011;57497;43.322;21.932;2023-02-26T09:15:33;58.1;;;17.8;;
68224;SDS011;57497;43.322;21.932;2023-02-26T09:20:33;21.5;;;13.8;;
68224;SDS011;57497;43.322;21.932;2023-02-26T09:25:32;26.2;;;12;;
68224;SDS011;57497;43.322;21.932;2023-02-26T09:30:33;20.5;;;9.2;;
68224;SDS011;57497;43.322;21.932;2023-02-26T09:35:33;15.4;;;10.8;;
68224;SDS011;57497;43.322;21.932;2023-02-26T09:40:36;25.5;;;14;;
68224;SDS011;57497;43.322;21.932;2023-02-26T09:45:33;18.5;;;11.4;;
68224;SDS011;57497;43.322;21.932;2023-02-26T09:50:36;25.5;;;11.1;;
68224;SDS011;57497;43.322;21.932;2023-02-26T09:55:34;19.4;;;11.9;;
68224;SDS011;57497;43.322;21.932;2023-02-26T10:00:35;15.2;;;9.3;;
68224;SDS011;57497;43.322;21.932;2023-02-26T10:05:35;27;;;9.5;;
68224;SDS011;57497;43.322;21.932;2023-02-26T10:10:34;19.1;;;10.4;;
68224;SDS011;57497;43.322;21.932;2023-02-26T10:15:34;24.7;;;10.3;;
68224;SDS011;57497;43.322;21.932;2023-02-26T10:20:33;24.3;;;11.5;;
68224;SDS011;57497;43.322;21.932;2023-02-26T10:25:34;7.6;;;5;;
68224;SDS011;57497;43.322;21.932;2023-02-26T10:30:34;10.5;;;8.2;;
68224;SDS011;57497;43.322;21.932;2023-02-26T10:35:35;12.5;;;10.2;;
68224;SDS011;57497;43.322;21.932;2023-02-26T10:40:33;20.5;;;8.9;;
68224;SDS011;57497;43.322;21.932;2023-02-26T10:45:36;14;;;10.2;;
68224;SDS011;57497;43.322;21.932;2023-02-26T10:50:33;17.9;;;10.1;;
68224;SDS011;57497;43.322;21.932;2023-02-26T10:55:34;14.1;;;9.1;;
68224;SDS011;57497;43.322;21.932;2023-02-26T11:00:34;12.8;;;8.8;;
68224;SDS011;57497;43.322;21.932;2023-02-26T11:05:32;9.4;;;7;;
68224;SDS011;57497;43.322;21.932;2023-02-26T11:10:38;8.7;;;6.8;;
68224;SDS011;57497;43.322;21.932;2023-02-26T11:15:33;9.1;;;5.9;;
68224;SDS011;57497;43.322;21.932;2023-02-26T11:20:35;12.8;;;8.6;;
68224;SDS011;57497;43.322;21.932;2023-02-26T11:25:32;11.3;;;8.1;;
68224;SDS011;57497;43.322;21.932;2023-02-26T11:30:34;15.9;;;7.7;;
68224;SDS011;57497;43.322;21.932;2023-02-26T11:35:33;11.8;;;7.7;;
68224;SDS011;57497;43.322;21.932;2023-02-26T11:40:34;10.7;;;7.5;;
68224;SDS011;57497;43.322;21.932;2023-02-26T11:45:33;16.5;;;9.3;;
68224;SDS011;57497;43.322;21.932;2023-02-26T11:50:36;9.7;;;6.9;;
68224;SDS011;57497;43.322;21.932;2023-02-26T11:55:36;10.7;;;7.2;;
68224;SDS011;57497;43.322;21.932;2023-02-26T12:00:34;12;;;8.3;;
68224;SDS011;57497;43.322;21.932;2023-02-26T12:05:33;11.8;;;7;;
68224;SDS011;57497;43.322;21.932;2023-02-26T12:10:35;19.4;;;9.4;;
68224;SDS011;57497;43.322;21.932;2023-02-26T12:15:45;10.4;;;7.7;;
68224;SDS011;57497;43.322;21.932;2023-02-26T12:20:34;8.8;;;7;;
68224;SDS011;57497;43.322;21.932;2023-02-26T12:25:37;10.6;;;9.6;;
68224;SDS011;57497;43.322;21.932;2023-02-26T12:30:40;8.6;;;5.5;;
68224;SDS011;57497;43.322;21.932;2023-02-26T12:35:43;16.7;;;6.9;;
68224;SDS011;57497;43.322;21.932;2023-02-26T12:40:39;9.3;;;8.3;;
68224;SDS011;57497;43.322;21.932;2023-02-26T12:45:36;11.4;;;7.2;;
68224;SDS011;57497;43.322;21.932;2023-02-26T12:50:36;7.9;;;5.3;;
68224;SDS011;57497;43.322;21.932;2023-02-26T12:55:33;30.8;;;8.6;;
68224;SDS011;57497;43.322;21.932;2023-02-26T13:00:41;9.3;;;6.7;;
68224;SDS011;57497;43.322;21.932;2023-02-26T13:05:38;11.2;;;7.9;;
68224;SDS011;57497;43.322;21.932;2023-02-26T13:10:36;12;;;7.7;;
68224;SDS011;57497;43.322;21.932;2023-02-26T13:15:36;10.3;;;8.6;;
68224;SDS011;57497;43.322;21.932;2023-02-26T13:20:32;18.6;;;8.7;;
68224;SDS011;57497;43.322;21.932;2023-02-26T13:25:34;23.1;;;8.6;;
68224;SDS011;57497;43.322;21.932;2023-02-26T13:30:33;11.9;;;8.2;;
68224;SDS011;57497;43.322;21.932;2023-02-26T13:35:34;11.9;;;9.2;;
68224;SDS011;57497;43.322;21.932;2023-02-26T13:40:37;15.2;;;10.1;;
68224;SDS011;57497;43.322;21.932;2023-02-26T13:45:36;8.1;;;7.1;;
68224;SDS011;57497;43.322;21.932;2023-02-26T13:50:36;10.2;;;8.4;;
68224;SDS011;57497;43.322;21.932;2023-02-26T13:55:34;10.7;;;7.5;;
68224;SDS011;57497;43.322;21.932;2023-02-26T14:00:33;14.9;;;9.7;;
68224;SDS011;57497;43.322;21.932;2023-02-26T14:05:35;13.8;;;9.6;;
68224;SDS011;57497;43.322;21.932;2023-02-26T14:10:36;15;;;11;;
68224;SDS011;57497;43.322;21.932;2023-02-26T14:15:39;10.9;;;9.6;;
68224;SDS011;57497;43.322;21.932;2023-02-26T14:20:33;11.4;;;7.7;;
68224;SDS011;57497;43.322;21.932;2023-02-26T14:25:34;20.8;;;10.9;;
68224;SDS011;57497;43.322;21.932;2023-02-26T14:30:33;10.1;;;7.9;;
68224;SDS011;57497;43.322;21.932;2023-02-26T14:35:33;15.4;;;10.1;;
68224;SDS011;57497;43.322;21.932;2023-02-26T14:40:34;8.6;;;7.7;;
68224;SDS011;57497;43.322;21.932;2023-02-26T14:45:34;15;;;8.9;;
68224;SDS011;57497;43.322;21.932;2023-02-26T14:50:36;16.1;;;9.2;;
68224;SDS011;57497;43.322;21.932;2023-02-26T14:55:36;10.9;;;8.3;;
68224;SDS011;57497;43.322;21.932;2023-02-26T15:00:36;13.9;;;8.7;;
68224;SDS011;57497;43.322;21.932;2023-02-26T15:05:38;12.3;;;8.7;;
68224;SDS011;57497;43.322;21.932;2023-02-26T15:10:38;14.9;;;11.1;;
68224;SDS011;57497;43.322;21.932;2023-02-26T15:15:35;12.4;;;8.5;;
68224;SDS011;57497;43.322;21.932;2023-02-26T15:20:34;27.1;;;19.5;;
68224;SDS011;57497;43.322;21.932;2023-02-26T15:25:34;22.8;;;13.2;;
68224;SDS011;57497;43.322;21.932;2023-02-26T15:30:33;19.1;;;13;;
68224;SDS011;57497;43.322;21.932;2023-02-26T15:35:33;18.2;;;10.9;;
68224;SDS011;57497;43.322;21.932;2023-02-26T15:40:33;24;;;13.8;;
68224;SDS011;57497;43.322;21.932;2023-02-26T15:45:33;22;;;11;;
68224;SDS011;57497;43.322;21.932;2023-02-26T15:50:34;23.7;;;14.9;;
68224;SDS011;57497;43.322;21.932;2023-02-26T15:55:34;19.8;;;14.3;;
68224;SDS011;57497;43.322;21.932;2023-02-26T16:00:35;14.9;;;11.1;;
68224;SDS011;57497;43.322;21.932;2023-02-26T16:05:33;16.1;;;13.6;;
68224;SDS011;57497;43.322;21.932;2023-02-26T16:10:33;21.9;;;14.9;;
68224;SDS011;57497;43.322;21.932;2023-02-26T16:15:33;13.5;;;9.2;;
68224;SDS011;57497;43.322;21.932;2023-02-26T16:20:35;26;;;12.8;;
68224;SDS011;57497;43.322;21.932;2023-02-26T16:25:34;29;;;14.7;;
68224;SDS011;57497;43.322;21.932;2023-02-26T16:30:33;21.8;;;14.4;;
68224;SDS011;57497;43.322;21.932;2023-02-26T16:35:36;20.1;;;10.8;;
68224;SDS011;57497;43.322;21.932;2023-02-26T16:40:33;24.9;;;15.4;;
68224;SDS011;57497;43.322;21.932;2023-02-26T16:45:49;21.4;;;14.6;;
68224;SDS011;57497;43.322;21.932;2023-02-26T16:50:33;24.7;;;15.7;;
68224;SDS011;57497;43.322;21.932;2023-02-26T16:55:34;28.1;;;13.1;;
68224;SDS011;57497;43.322;21.932;2023-02-26T17:00:33;26.3;;;16;;
68224;SDS011;57497;43.322;21.932;2023-02-26T17:05:33;29.8;;;16.4;;
68224;SDS011;57497;43.322;21.932;2023-02-26T17:10:33;30.8;;;17.1;;
68224;SDS011;57497;43.322;21.932;2023-02-26T17:15:34;29.8;;;16.5;;
68224;SDS011;57497;43.322;21.932;2023-02-26T17:20:32;29.6;;;17.2;;
68224;SDS011;57497;43.322;21.932;2023-02-26T17:25:33;41.2;;;18.4;;
68224;SDS011;57497;43.322;21.932;2023-02-26T17:30:33;36.1;;;19.8;;
68224;SDS011;57497;43.322;21.932;2023-02-26T17:35:33;36.4;;;23.4;;
68224;SDS011;57497;43.322;21.932;2023-02-26T17:40:33;44.5;;;15.9;;
68224;SDS011;57497;43.322;21.932;2023-02-26T17:45:33;35.6;;;17.4;;
68224;SDS011;57497;43.322;21.932;2023-02-26T17:50:36;30.5;;;16.4;;
68224;SDS011;57497;43.322;21.932;2023-02-26T17:55:33;30.3;;;20.1;;
68224;SDS011;57497;43.322;21.932;2023-02-26T18:00:33;34.9;;;21.9;;
68224;SDS011;57497;43.322;21.932;2023-02-26T18:05:33;25;;;12.3;;
68224;SDS011;57497;43.322;21.932;2023-02-26T18:10:33;33.8;;;17.4;;
68224;SDS011;57497;43.322;21.932;2023-02-26T18:15:32;27.7;;;17.8;;
68224;SDS011;57497;43.322;21.932;2023-02-26T18:20:33;35.9;;;17.5;;
68224;SDS011;57497;43.322;21.932;2023-02-26T18:25:33;35.2;;;14.3;;
68224;SDS011;57497;43.322;21.932;2023-02-26T18:30:34;24.7;;;12.8;;
68224;SDS011;57497;43.322;21.932;2023-02-26T18:35:32;27.2;;;15.7;;
68224;SDS011;57497;43.322;21.932;2023-02-26T18:40:33;28.6;;;17.5;;
68224;SDS011;57497;43.322;21.932;2023-02-26T18:45:33;28.8;;;16.4;;
68224;SDS011;57497;43.322;21.932;2023-02-26T18:50:33;41.4;;;18.3;;
68224;SDS011;57497;43.322;21.932;2023-02-26T18:55:33;35.2;;;18.4;;
68224;SDS011;57497;43.322;21.932;2023-02-26T19:00:34;34.5;;;16.5;;
68224;SDS011;57497;43.322;21.932;2023-02-26T19:05:33;28.1;;;15.3;;
68224;SDS011;57497;43.322;21.932;2023-02-26T19:10:32;32.1;;;17.5;;
68224;SDS011;57497;43.322;21.932;2023-02-26T19:15:33;30.1;;;15.3;;
68224;SDS011;57497;43.322;21.932;2023-02-26T19:20:33;31.6;;;16.3;;
68224;SDS011;57497;43.322;21.932;2023-02-26T19:25:32;32;;;18.7;;
68224;SDS011;57497;43.322;21.932;2023-02-26T19:30:33;26;;;14.8;;
68224;SDS011;57497;43.322;21.932;2023-02-26T19:35:33;35.8;;;21.3;;
68224;SDS011;57497;43.322;21.932;2023-02-26T19:40:32;42.7;;;20.1;;
68224;SDS011;57497;43.322;21.932;2023-02-26T19:45:33;34.5;;;16;;
68224;SDS011;57497;43.322;21.932;2023-02-26T19:50:33;51.5;;;19.2;;
68224;SDS011;57497;43.322;21.932;2023-02-26T19:55:32;46.9;;;20.6;;
68224;SDS011;57497;43.322;21.932;2023-02-26T20:00:33;33.6;;;17.8;;
68224;SDS011;57497;43.322;21.932;2023-02-26T20:05:33;51.7;;;20.6;;
68224;SDS011;57497;43.322;21.932;2023-02-26T20:10:33;23.3;;;12.3;;
68224;SDS011;57497;43.322;21.932;2023-02-26T20:15:32;30.5;;;18.2;;
68224;SDS011;57497;43.322;21.932;2023-02-26T20:20:33;32.6;;;17.6;;
68224;SDS011;57497;43.322;21.932;2023-02-26T20:25:33;19.8;;;13.7;;
68224;SDS011;57497;43.322;21.932;2023-02-26T20:30:33;31.6;;;17.6;;
68224;SDS011;57497;43.322;21.932;2023-02-26T20:35:32;22.1;;;13.9;;
68224;SDS011;57497;43.322;21.932;2023-02-26T20:40:33;26.1;;;15.8;;
68224;SDS011;57497;43.322;21.932;2023-02-26T20:45:33;27.3;;;15.4;;
68224;SDS011;57497;43.322;21.932;2023-02-26T20:50:34;20.1;;;13.5;;
68224;SDS011;57497;43.322;21.932;2023-02-26T20:55:33;21.7;;;14.5;;
68224;SDS011;57497;43.322;21.932;2023-02-26T21:00:34;22.5;;;10.2;;
68224;SDS011;57497;43.322;21.932;2023-02-26T21:05:33;16.1;;;10.6;;
68224;SDS011;57497;43.322;21.932;2023-02-26T21:10:32;22.9;;;13.2;;
68224;SDS011;57497;43.322;21.932;2023-02-26T21:15:33;30.6;;;14.7;;
68224;SDS011;57497;43.322;21.932;2023-02-26T21:20:33;29.9;;;16.9;;
68224;SDS011;57497;43.322;21.932;2023-02-26T21:25:33;17.9;;;12.1;;
68224;SDS011;57497;43.322;21.932;2023-02-26T21:30:33;26.9;;;16.7;;
68224;SDS011;57497;43.322;21.932;2023-02-26T21:35:33;15.8;;;10.8;;
68224;SDS011;57497;43.322;21.932;2023-02-26T21:40:33;23.9;;;15.3;;
68224;SDS011;57497;43.322;21.932;2023-02-26T21:45:33;19.6;;;12.8;;
68224;SDS011;57497;43.322;21.932;2023-02-26T21:50:33;22.9;;;11.6;;
68224;SDS011;57497;43.322;21.932;2023-02-26T21:55:32;20.5;;;14.6;;
68224;SDS011;57497;43.322;21.932;2023-02-26T22:00:34;24.3;;;18.4;;
68224;SDS011;57497;43.322;21.932;2023-02-26T22:05:33;20.5;;;13.5;;
68224;SDS011;57497;43.322;21.932;2023-02-26T22:10:32;15.4;;;13.8;;
68224;SDS011;57497;43.322;21.932;2023-02-26T22:15:33;18.7;;;13.6;;
68224;SDS011;57497;43.322;21.932;2023-02-26T22:20:33;25.7;;;12;;
68224;SDS011;57497;43.322;21.932;2023-02-26T22:25:32;23.5;;;14.9;;
68224;SDS011;57497;43.322;21.932;2023-02-26T22:30:33;23.5;;;15.2;;
68224;SDS011;57497;43.322;21.932;2023-02-26T22:35:33;23.4;;;16.9;;
68224;SDS011;57497;43.322;21.932;2023-02-26T22:40:33;16.8;;;12.9;;
68224;SDS011;57497;43.322;21.932;2023-02-26T22:45:33;19.2;;;11.9;;
68224;SDS011;57497;43.322;21.932;2023-02-26T22:50:33;16.2;;;11.4;;
68224;SDS011;57497;43.322;21.932;2023-02-26T22:55:33;24.2;;;12.3;;
68224;SDS011;57497;43.322;21.932;2023-02-26T23:00:33;19.5;;;13.8;;
68224;SDS011;57497;43.322;21.932;2023-02-26T23:05:33;25.8;;;14.6;;
68224;SDS011;57497;43.322;21.932;2023-02-26T23:10:33;10.5;;;7.6;;
68224;SDS011;57497;43.322;21.932;2023-02-26T23:15:33;26.2;;;13.5;;
68224;SDS011;57497;43.322;21.932;2023-02-26T23:20:32;24.1;;;13;;
68224;SDS011;57497;43.322;21.932;2023-02-26T23:25:33;43.5;;;8.5;;
68224;SDS011;57497;43.322;21.932;2023-02-26T23:30:33;19.3;;;12.3;;
68224;SDS011;57497;43.322;21.932;2023-02-26T23:35:33;11.2;;;7.1;;
68224;SDS011;57497;43.322;21.932;2023-02-26T23:40:33;11.2;;;4.4;;
68224;SDS011;57497;43.322;21.932;2023-02-26T23:45:33;20;;;4.7;;
68224;SDS011;57497;43.322;21.932;2023-02-26T23:50:33;7.4;;;4.8;;
68224;SDS011;57497;43.322;21.932;2023-02-26T23:55:33;4.4;;;3.1;;
